sensor_id;sensor_type;location;lat;lon;timestamp;pressure;altitude;pressure_sealevel;temperature;humidity
11971;BME280;6045;42.682;23.294;2023-06-04T00:00:44;94809.41;;;18.27;84.13
11971;BME280;6045;42.682;23.294;2023-06-04T00:03:11;94809.38;;;18.32;83.99
11971;BME280;6045;42.682;23.294;2023-06-04T00:05:38;94807.75;;;18.36;84.02
11971;BME280;6045;42.682;23.294;2023-06-04T00:08:05;94807.19;;;18.39;84.81
11971;BME280;6045;42.682;23.294;2023-06-04T00:10:31;94798.28;;;18.39;84.33
11971;BME280;6045;42.682;23.294;2023-06-04T00:12:59;94799.63;;;18.41;84.36
11971;BME280;6045;42.682;23.294;2023-06-04T00:15:27;94799.88;;;18.40;84.52
11971;BME280;6045;42.682;23.294;2023-06-04T00:17:54;94799.34;;;18.38;85.24
11971;BME280;6045;42.682;23.294;2023-06-04T00:20:22;94791.25;;;18.33;84.70
11971;BME280;6045;42.682;23.294;2023-06-04T00:22:49;94806.66;;;18.32;84.24
11971;BME280;6045;42.682;23.294;2023-06-04T00:25:15;94799.38;;;18.33;83.27
11971;BME280;6045;42.682;23.294;2023-06-04T00:27:42;94798.28;;;18.34;81.84
11971;BME280;6045;42.682;23.294;2023-06-04T00:30:10;94793.94;;;18.38;81.18
11971;BME280;6045;42.682;23.294;2023-06-04T00:32:38;94793.66;;;18.39;81.18
11971;BME280;6045;42.682;23.294;2023-06-04T00:35:06;94798.28;;;18.44;81.12
11971;BME280;6045;42.682;23.294;2023-06-04T00:37:34;94789.06;;;18.45;81.16
11971;BME280;6045;42.682;23.294;2023-06-04T00:40:01;94790.16;;;18.39;82.60
11971;BME280;6045;42.682;23.294;2023-06-04T00:42:29;94792.88;;;18.29;83.58
11971;BME280;6045;42.682;23.294;2023-06-04T00:44:56;94794.53;;;18.20;84.09
11971;BME280;6045;42.682;23.294;2023-06-04T00:47:24;94790.75;;;18.11;84.19
11971;BME280;6045;42.682;23.294;2023-06-04T00:49:53;94784.25;;;18.07;82.42
11971;BME280;6045;42.682;23.294;2023-06-04T00:52:23;94789.66;;;18.12;82.92
11971;BME280;6045;42.682;23.294;2023-06-04T00:54:51;94784.53;;;18.15;83.32
11971;BME280;6045;42.682;23.294;2023-06-04T00:57:20;94788.84;;;18.16;83.60
11971;BME280;6045;42.682;23.294;2023-06-04T00:59:47;94791.28;;;18.18;83.24
11971;BME280;6045;42.682;23.294;2023-06-04T01:02:16;94789.13;;;18.15;82.71
11971;BME280;6045;42.682;23.294;2023-06-04T01:04:52;94786.94;;;18.17;82.29
11971;BME280;6045;42.682;23.294;2023-06-04T01:07:22;94785.59;;;18.19;82.58
11971;BME280;6045;42.682;23.294;2023-06-04T01:09:51;94785.59;;;18.19;83.01
11971;BME280;6045;42.682;23.294;2023-06-04T01:12:18;94793.72;;;18.14;83.13
11971;BME280;6045;42.682;23.294;2023-06-04T01:14:45;94790.75;;;18.16;82.29
11971;BME280;6045;42.682;23.294;2023-06-04T01:17:15;94788.31;;;18.14;83.18
11971;BME280;6045;42.682;23.294;2023-06-04T01:20:03;94791.84;;;17.90;82.93
11971;BME280;6045;42.682;23.294;2023-06-04T01:22:39;94789.13;;;17.74;84.28
11971;BME280;6045;42.682;23.294;2023-06-04T01:25:13;94787.50;;;17.73;84.13
11971;BME280;6045;42.682;23.294;2023-06-04T01:27:46;94785.31;;;17.81;84.06
11971;BME280;6045;42.682;23.294;2023-06-04T01:30:16;94786.44;;;17.85;84.47
11971;BME280;6045;42.682;23.294;2023-06-04T01:32:44;94795.09;;;17.92;84.48
11971;BME280;6045;42.682;23.294;2023-06-04T01:35:12;94795.63;;;17.94;83.96
11971;BME280;6045;42.682;23.294;2023-06-04T01:37:40;94796.16;;;17.86;83.87
11971;BME280;6045;42.682;23.294;2023-06-04T01:40:08;94799.41;;;17.72;84.54
11971;BME280;6045;42.682;23.294;2023-06-04T01:42:35;94814.22;;;17.50;85.66
11971;BME280;6045;42.682;23.294;2023-06-04T01:45:03;94807.72;;;17.36;86.36
11971;BME280;6045;42.682;23.294;2023-06-04T01:47:30;94816.03;;;17.24;86.42
11971;BME280;6045;42.682;23.294;2023-06-04T01:49:57;94815.75;;;17.16;87.31
11971;BME280;6045;42.682;23.294;2023-06-04T01:52:23;94805.16;;;17.04;87.82
11971;BME280;6045;42.682;23.294;2023-06-04T01:54:52;94808.41;;;17.01;88.00
11971;BME280;6045;42.682;23.294;2023-06-04T01:57:19;94810.00;;;16.97;88.13
11971;BME280;6045;42.682;23.294;2023-06-04T01:59:46;94821.66;;;17.07;87.92
11971;BME280;6045;42.682;23.294;2023-06-04T02:02:13;94814.13;;;17.09;87.65
11971;BME280;6045;42.682;23.294;2023-06-04T02:04:41;94817.53;;;16.90;88.10
11971;BME280;6045;42.682;23.294;2023-06-04T02:07:08;94812.13;;;16.90;88.66
11971;BME280;6045;42.682;23.294;2023-06-04T02:09:35;94821.31;;;16.84;88.06
11971;BME280;6045;42.682;23.294;2023-06-04T02:12:04;94817.84;;;16.98;87.62
11971;BME280;6045;42.682;23.294;2023-06-04T02:14:31;94815.91;;;16.84;88.31
11971;BME280;6045;42.682;23.294;2023-06-04T02:16:58;94827.81;;;16.93;87.55
11971;BME280;6045;42.682;23.294;2023-06-04T02:19:25;94833.25;;;17.03;87.23
11971;BME280;6045;42.682;23.294;2023-06-04T02:21:52;94825.38;;;16.96;87.45
11971;BME280;6045;42.682;23.294;2023-06-04T02:24:19;94827.84;;;16.98;87.26
11971;BME280;6045;42.682;23.294;2023-06-04T02:26:46;94833.25;;;16.98;87.59
11971;BME280;6045;42.682;23.294;2023-06-04T02:29:14;94848.63;;;16.97;87.24
11971;BME280;6045;42.682;23.294;2023-06-04T02:31:41;94845.97;;;17.02;87.16
11971;BME280;6045;42.682;23.294;2023-06-04T02:34:08;94843.53;;;17.06;86.83
11971;BME280;6045;42.682;23.294;2023-06-04T02:36:35;94850.03;;;17.15;86.57
11971;BME280;6045;42.682;23.294;2023-06-04T02:39:02;94849.03;;;17.26;86.77
11971;BME280;6045;42.682;23.294;2023-06-04T02:41:29;94849.00;;;17.31;86.37
11971;BME280;6045;42.682;23.294;2023-06-04T02:43:56;94852.56;;;17.42;86.12
11971;BME280;6045;42.682;23.294;2023-06-04T02:46:24;94859.06;;;17.51;85.80
11971;BME280;6045;42.682;23.294;2023-06-04T02:48:51;94856.41;;;17.56;85.37
11971;BME280;6045;42.682;23.294;2023-06-04T04:24:02;94907.28;;;17.07;89.67
11971;BME280;6045;42.682;23.294;2023-06-04T04:26:29;94900.25;;;17.06;90.00
11971;BME280;6045;42.682;23.294;2023-06-04T04:28:56;94902.19;;;17.16;89.67
11971;BME280;6045;42.682;23.294;2023-06-04T04:31:26;94907.91;;;17.29;89.34
11971;BME280;6045;42.682;23.294;2023-06-04T04:33:55;94907.44;;;17.42;89.28
11971;BME280;6045;42.682;23.294;2023-06-04T04:36:22;94911.72;;;17.38;89.57
11971;BME280;6045;42.682;23.294;2023-06-04T04:38:49;94910.38;;;17.41;89.46
11971;BME280;6045;42.682;23.294;2023-06-04T04:41:20;94922.09;;;17.51;88.90
11971;BME280;6045;42.682;23.294;2023-06-04T04:43:48;94917.91;;;17.34;88.48
11971;BME280;6045;42.682;23.294;2023-06-04T04:46:15;94914.66;;;17.22;89.08
11971;BME280;6045;42.682;23.294;2023-06-04T04:48:42;94911.41;;;17.25;88.29
11971;BME280;6045;42.682;23.294;2023-06-04T04:51:08;94915.78;;;17.36;88.65
11971;BME280;6045;42.682;23.294;2023-06-04T04:53:35;94910.41;;;17.46;88.25
11971;BME280;6045;42.682;23.294;2023-06-04T04:56:02;94915.59;;;17.57;88.78
11971;BME280;6045;42.682;23.294;2023-06-04T04:58:30;94908.59;;;17.56;88.32
11971;BME280;6045;42.682;23.294;2023-06-04T05:00:57;94915.38;;;17.64;87.37
11971;BME280;6045;42.682;23.294;2023-06-04T05:03:24;94914.53;;;17.58;86.39
11971;BME280;6045;42.682;23.294;2023-06-04T05:05:51;94917.22;;;17.53;86.26
11971;BME280;6045;42.682;23.294;2023-06-04T05:08:18;94920.00;;;17.68;85.91
11971;BME280;6045;42.682;23.294;2023-06-04T05:10:45;94918.94;;;17.85;85.00
11971;BME280;6045;42.682;23.294;2023-06-04T05:13:12;94916.78;;;18.02;84.58
11971;BME280;6045;42.682;23.294;2023-06-04T05:15:44;94916.53;;;17.98;83.88
11971;BME280;6045;42.682;23.294;2023-06-04T05:18:13;94927.34;;;18.03;83.38
11971;BME280;6045;42.682;23.294;2023-06-04T05:20:41;94922.75;;;18.14;82.83
11971;BME280;6045;42.682;23.294;2023-06-04T05:23:08;94920.06;;;18.29;82.30
11971;BME280;6045;42.682;23.294;2023-06-04T05:25:38;94923.88;;;18.23;82.61
11971;BME280;6045;42.682;23.294;2023-06-04T05:28:06;94920.34;;;18.22;82.32
11971;BME280;6045;42.682;23.294;2023-06-04T05:30:33;94927.66;;;18.27;81.61
11971;BME280;6045;42.682;23.294;2023-06-04T05:33:01;94929.25;;;18.28;81.44
11971;BME280;6045;42.682;23.294;2023-06-04T05:35:28;94935.78;;;18.32;81.55
11971;BME280;6045;42.682;23.294;2023-06-04T05:37:55;94926.03;;;18.36;81.93
11971;BME280;6045;42.682;23.294;2023-06-04T05:40:22;94931.44;;;18.41;81.68
11971;BME280;6045;42.682;23.294;2023-06-04T05:42:49;94933.63;;;18.34;81.33
11971;BME280;6045;42.682;23.294;2023-06-04T05:45:16;94930.09;;;18.38;81.38
11971;BME280;6045;42.682;23.294;2023-06-04T05:47:42;94935.53;;;18.54;81.31
11971;BME280;6045;42.682;23.294;2023-06-04T05:50:11;94940.69;;;18.65;80.25
11971;BME280;6045;42.682;23.294;2023-06-04T05:52:38;94936.59;;;18.83;80.31
11971;BME280;6045;42.682;23.294;2023-06-04T05:55:05;94944.19;;;18.91;80.05
11971;BME280;6045;42.682;23.294;2023-06-04T05:57:33;94947.97;;;18.90;78.86
11971;BME280;6045;42.682;23.294;2023-06-04T06:00:00;94951.50;;;18.90;78.96
11971;BME280;6045;42.682;23.294;2023-06-04T06:02:27;94948.78;;;19.00;78.38
11971;BME280;6045;42.682;23.294;2023-06-04T06:04:53;94953.63;;;19.03;77.25
11971;BME280;6045;42.682;23.294;2023-06-04T06:07:23;94952.25;;;19.16;77.39
11971;BME280;6045;42.682;23.294;2023-06-04T06:09:49;94959.63;;;18.85;76.40
11971;BME280;6045;42.682;23.294;2023-06-04T06:12:16;94961.25;;;18.66;76.86
11971;BME280;6045;42.682;23.294;2023-06-04T06:14:43;94960.72;;;18.59;77.32
11971;BME280;6045;42.682;23.294;2023-06-04T06:17:10;94959.09;;;18.58;76.94
11971;BME280;6045;42.682;23.294;2023-06-04T06:19:37;94963.94;;;18.61;77.19
11971;BME280;6045;42.682;23.294;2023-06-04T06:22:04;94958.53;;;18.66;76.89
11971;BME280;6045;42.682;23.294;2023-06-04T06:24:32;94958.53;;;18.56;77.08
11971;BME280;6045;42.682;23.294;2023-06-04T06:26:59;94957.47;;;18.62;77.80
11971;BME280;6045;42.682;23.294;2023-06-04T06:29:26;94962.31;;;18.85;77.16
11971;BME280;6045;42.682;23.294;2023-06-04T06:31:53;94960.41;;;19.01;76.28
11971;BME280;6045;42.682;23.294;2023-06-04T06:34:20;94942.78;;;19.08;76.03
11971;BME280;6045;42.682;23.294;2023-06-04T06:36:46;94964.19;;;19.05;75.41
11971;BME280;6045;42.682;23.294;2023-06-04T06:39:13;94966.34;;;19.18;74.82
11971;BME280;6045;42.682;23.294;2023-06-04T06:41:42;94968.22;;;19.23;74.75
11971;BME280;6045;42.682;23.294;2023-06-04T06:44:09;94969.56;;;19.30;73.79
11971;BME280;6045;42.682;23.294;2023-06-04T06:46:36;94967.91;;;19.34;75.26
11971;BME280;6045;42.682;23.294;2023-06-04T06:49:03;94975.81;;;19.36;74.63
11971;BME280;6045;42.682;23.294;2023-06-04T06:51:30;94963.59;;;19.33;72.88
11971;BME280;6045;42.682;23.294;2023-06-04T06:53:56;94974.44;;;19.33;73.44
11971;BME280;6045;42.682;23.294;2023-06-04T06:56:24;94970.91;;;19.33;73.69
11971;BME280;6045;42.682;23.294;2023-06-04T06:58:52;94976.34;;;19.38;73.59
11971;BME280;6045;42.682;23.294;2023-06-04T07:01:19;94973.06;;;19.46;73.70
11971;BME280;6045;42.682;23.294;2023-06-04T07:03:46;94977.09;;;19.58;74.55
11971;BME280;6045;42.682;23.294;2023-06-04T07:06:13;94967.47;;;19.86;73.43
11971;BME280;6045;42.682;23.294;2023-06-04T07:08:40;94976.38;;;20.02;75.30
11971;BME280;6045;42.682;23.294;2023-06-04T07:11:07;94980.94;;;20.11;71.54
11971;BME280;6045;42.682;23.294;2023-06-04T07:13:37;94978.00;;;19.93;71.81
11971;BME280;6045;42.682;23.294;2023-06-04T07:16:06;94991.59;;;19.93;71.66
11971;BME280;6045;42.682;23.294;2023-06-04T07:18:32;94992.09;;;20.00;71.70
11971;BME280;6045;42.682;23.294;2023-06-04T07:21:01;94992.41;;;19.93;70.91
11971;BME280;6045;42.682;23.294;2023-06-04T07:23:28;94990.16;;;20.10;70.08
11971;BME280;6045;42.682;23.294;2023-06-04T07:25:55;94993.59;;;20.26;70.82
11971;BME280;6045;42.682;23.294;2023-06-04T07:28:23;94999.75;;;20.47;69.97
11971;BME280;6045;42.682;23.294;2023-06-04T07:30:50;95002.91;;;20.59;69.34
11971;BME280;6045;42.682;23.294;2023-06-04T07:33:18;94999.84;;;20.70;68.84
11971;BME280;6045;42.682;23.294;2023-06-04T07:35:45;95002.44;;;20.85;68.31
11971;BME280;6045;42.682;23.294;2023-06-04T07:38:12;95005.94;;;20.91;67.79
11971;BME280;6045;42.682;23.294;2023-06-04T07:40:39;95005.34;;;20.94;68.97
11971;BME280;6045;42.682;23.294;2023-06-04T07:43:06;95007.09;;;20.80;68.26
11971;BME280;6045;42.682;23.294;2023-06-04T07:45:32;95006.91;;;20.66;69.10
11971;BME280;6045;42.682;23.294;2023-06-04T07:47:59;95019.59;;;20.81;68.82
11971;BME280;6045;42.682;23.294;2023-06-04T07:50:28;95016.69;;;21.06;69.70
11971;BME280;6045;42.682;23.294;2023-06-04T07:52:55;95013.81;;;21.26;68.30
11971;BME280;6045;42.682;23.294;2023-06-04T07:55:22;95014.94;;;21.20;68.38
11971;BME280;6045;42.682;23.294;2023-06-04T07:57:49;95016.19;;;21.33;69.16
11971;BME280;6045;42.682;23.294;2023-06-04T08:00:16;95017.91;;;21.52;68.56
11971;BME280;6045;42.682;23.294;2023-06-04T08:02:43;95026.66;;;21.44;67.17
11971;BME280;6045;42.682;23.294;2023-06-04T08:05:10;95025.53;;;21.50;66.80
11971;BME280;6045;42.682;23.294;2023-06-04T08:07:40;95026.47;;;21.64;66.69
11971;BME280;6045;42.682;23.294;2023-06-04T08:10:08;95021.50;;;21.71;66.60
11971;BME280;6045;42.682;23.294;2023-06-04T08:12:35;95024.53;;;21.65;66.26
11971;BME280;6045;42.682;23.294;2023-06-04T08:15:03;95023.47;;;21.37;65.97
11971;BME280;6045;42.682;23.294;2023-06-04T08:17:31;95023.59;;;21.22;67.78
11971;BME280;6045;42.682;23.294;2023-06-04T08:19:57;95018.56;;;21.39;67.94
11971;BME280;6045;42.682;23.294;2023-06-04T08:22:24;95022.47;;;21.86;67.17
11971;BME280;6045;42.682;23.294;2023-06-04T08:24:54;95028.34;;;21.93;66.57
11971;BME280;6045;42.682;23.294;2023-06-04T08:27:21;95023.25;;;21.86;65.72
11971;BME280;6045;42.682;23.294;2023-06-04T08:29:48;95027.28;;;21.89;65.01
11971;BME280;6045;42.682;23.294;2023-06-04T08:32:15;95034.22;;;21.76;66.49
11971;BME280;6045;42.682;23.294;2023-06-04T08:34:42;95032.28;;;21.76;65.89
11971;BME280;6045;42.682;23.294;2023-06-04T08:37:09;95030.50;;;21.67;65.89
11971;BME280;6045;42.682;23.294;2023-06-04T08:39:36;95038.28;;;22.02;65.83
11971;BME280;6045;42.682;23.294;2023-06-04T08:42:06;95033.34;;;22.28;64.77
11971;BME280;6045;42.682;23.294;2023-06-04T08:44:37;95032.59;;;22.22;64.35
11971;BME280;6045;42.682;23.294;2023-06-04T08:47:05;95044.56;;;22.03;64.22
11971;BME280;6045;42.682;23.294;2023-06-04T08:49:33;95052.19;;;22.01;64.53
11971;BME280;6045;42.682;23.294;2023-06-04T08:52:01;95052.03;;;21.63;66.29
11971;BME280;6045;42.682;23.294;2023-06-04T08:54:29;95042.22;;;21.39;66.85
11971;BME280;6045;42.682;23.294;2023-06-04T08:56:56;95048.63;;;21.24;67.60
11971;BME280;6045;42.682;23.294;2023-06-04T08:59:25;95055.81;;;21.10;68.34
11971;BME280;6045;42.682;23.294;2023-06-04T09:01:55;95058.69;;;21.24;68.26
11971;BME280;6045;42.682;23.294;2023-06-04T09:04:22;95057.53;;;20.96;68.47
11971;BME280;6045;42.682;23.294;2023-06-04T09:06:49;95060.19;;;21.01;68.58
11971;BME280;6045;42.682;23.294;2023-06-04T09:09:17;95052.84;;;21.01;68.72
11971;BME280;6045;42.682;23.294;2023-06-04T09:11:49;95059.41;;;21.00;69.55
11971;BME280;6045;42.682;23.294;2023-06-04T09:14:17;95051.47;;;21.09;67.65
11971;BME280;6045;42.682;23.294;2023-06-04T09:16:46;95063.59;;;21.22;67.31
11971;BME280;6045;42.682;23.294;2023-06-04T09:19:14;95055.25;;;21.42;66.97
11971;BME280;6045;42.682;23.294;2023-06-04T09:21:51;95062.06;;;21.39;64.83
11971;BME280;6045;42.682;23.294;2023-06-04T09:24:18;95066.47;;;21.35;65.05
11971;BME280;6045;42.682;23.294;2023-06-04T09:26:46;95058.91;;;21.27;64.78
11971;BME280;6045;42.682;23.294;2023-06-04T09:29:14;95057.84;;;21.57;64.91
11971;BME280;6045;42.682;23.294;2023-06-04T09:31:40;95054.09;;;22.00;62.81
11971;BME280;6045;42.682;23.294;2023-06-04T09:34:09;95050.34;;;22.20;62.35
11971;BME280;6045;42.682;23.294;2023-06-04T09:36:37;95054.34;;;22.46;60.73
11971;BME280;6045;42.682;23.294;2023-06-04T09:39:14;95048.59;;;22.47;61.97
11971;BME280;6045;42.682;23.294;2023-06-04T09:41:42;95049.91;;;22.74;60.88
11971;BME280;6045;42.682;23.294;2023-06-04T09:44:08;95056.97;;;22.93;60.43
11971;BME280;6045;42.682;23.294;2023-06-04T09:46:36;95053.59;;;23.34;59.44
11971;BME280;6045;42.682;23.294;2023-06-04T09:49:04;95056.94;;;23.12;59.40
11971;BME280;6045;42.682;23.294;2023-06-04T09:51:32;95055.31;;;23.11;59.62
11971;BME280;6045;42.682;23.294;2023-06-04T09:54:00;95061.09;;;23.42;57.96
11971;BME280;6045;42.682;23.294;2023-06-04T09:56:28;95060.66;;;23.02;58.69
11971;BME280;6045;42.682;23.294;2023-06-04T09:58:57;95047.59;;;23.50;58.94
11971;BME280;6045;42.682;23.294;2023-06-04T10:01:27;95055.38;;;23.25;57.82
11971;BME280;6045;42.682;23.294;2023-06-04T10:03:57;95057.56;;;23.23;57.57
11971;BME280;6045;42.682;23.294;2023-06-04T10:06:25;95057.97;;;23.16;57.61
11971;BME280;6045;42.682;23.294;2023-06-04T10:08:56;95052.75;;;23.20;58.72
11971;BME280;6045;42.682;23.294;2023-06-04T10:11:26;95040.38;;;24.00;58.37
11971;BME280;6045;42.682;23.294;2023-06-04T10:14:00;95052.44;;;24.40;55.53
11971;BME280;6045;42.682;23.294;2023-06-04T10:16:30;95047.56;;;24.37;54.21
11971;BME280;6045;42.682;23.294;2023-06-04T10:18:57;95042.94;;;24.37;56.27
11971;BME280;6045;42.682;23.294;2023-06-04T10:21:26;95051.44;;;24.22;57.92
11971;BME280;6045;42.682;23.294;2023-06-04T10:23:54;95044.13;;;24.04;56.48
11971;BME280;6045;42.682;23.294;2023-06-04T10:26:22;95036.75;;;24.32;55.27
11971;BME280;6045;42.682;23.294;2023-06-04T10:28:49;95042.03;;;24.15;55.24
11971;BME280;6045;42.682;23.294;2023-06-04T10:31:17;95042.19;;;24.05;54.89
11971;BME280;6045;42.682;23.294;2023-06-04T10:33:44;95042.28;;;23.86;56.17
11971;BME280;6045;42.682;23.294;2023-06-04T10:36:18;95048.50;;;23.27;56.61
11971;BME280;6045;42.682;23.294;2023-06-04T10:38:52;95038.34;;;22.82;59.13
11971;BME280;6045;42.682;23.294;2023-06-04T10:41:22;95039.03;;;22.50;60.44
11971;BME280;6045;42.682;23.294;2023-06-04T10:43:50;95038.41;;;22.16;62.46
11971;BME280;6045;42.682;23.294;2023-06-04T10:46:18;95040.16;;;22.07;62.61
11971;BME280;6045;42.682;23.294;2023-06-04T10:48:46;95041.47;;;22.09;63.18
11971;BME280;6045;42.682;23.294;2023-06-04T10:51:13;95041.66;;;21.94;63.15
11971;BME280;6045;42.682;23.294;2023-06-04T10:53:40;95045.34;;;21.79;63.25
11971;BME280;6045;42.682;23.294;2023-06-04T10:56:07;95038.81;;;21.80;63.18
11971;BME280;6045;42.682;23.294;2023-06-04T10:58:35;95038.09;;;21.70;63.58
11971;BME280;6045;42.682;23.294;2023-06-04T11:01:02;95032.47;;;21.61;63.62
11971;BME280;6045;42.682;23.294;2023-06-04T11:03:35;95028.13;;;21.60;63.26
11971;BME280;6045;42.682;23.294;2023-06-04T11:06:13;95029.94;;;21.70;63.52
11971;BME280;6045;42.682;23.294;2023-06-04T11:08:41;95036.72;;;21.72;64.28
11971;BME280;6045;42.682;23.294;2023-06-04T11:11:11;95033.53;;;21.65;64.89
11971;BME280;6045;42.682;23.294;2023-06-04T11:13:39;95035.66;;;21.45;66.34
11971;BME280;6045;42.682;23.294;2023-06-04T11:16:14;95027.22;;;21.41;65.51
11971;BME280;6045;42.682;23.294;2023-06-04T11:18:41;95034.78;;;21.49;63.93
11971;BME280;6045;42.682;23.294;2023-06-04T11:21:08;95042.59;;;21.56;64.57
11971;BME280;6045;42.682;23.294;2023-06-04T11:23:36;95037.41;;;21.59;64.31
11971;BME280;6045;42.682;23.294;2023-06-04T11:26:03;95039.06;;;21.55;64.92
11971;BME280;6045;42.682;23.294;2023-06-04T11:28:30;95041.34;;;21.43;66.04
11971;BME280;6045;42.682;23.294;2023-06-04T11:30:59;95030.00;;;21.36;65.70
11971;BME280;6045;42.682;23.294;2023-06-04T11:33:28;95027.66;;;21.53;65.17
11971;BME280;6045;42.682;23.294;2023-06-04T11:35:55;95028.78;;;21.76;63.81
11971;BME280;6045;42.682;23.294;2023-06-04T11:38:22;95027.19;;;21.99;62.33
11971;BME280;6045;42.682;23.294;2023-06-04T11:40:58;95023.22;;;22.10;62.02
11971;BME280;6045;42.682;23.294;2023-06-04T11:43:26;95030.66;;;22.04;62.33
11971;BME280;6045;42.682;23.294;2023-06-04T11:45:53;95029.38;;;21.97;62.86
11971;BME280;6045;42.682;23.294;2023-06-04T11:48:22;95034.03;;;21.96;63.69
11971;BME280;6045;42.682;23.294;2023-06-04T11:50:49;95034.78;;;22.02;64.15
11971;BME280;6045;42.682;23.294;2023-06-04T11:53:16;95034.84;;;21.97;63.85
11971;BME280;6045;42.682;23.294;2023-06-04T11:55:43;95024.75;;;21.97;63.46
11971;BME280;6045;42.682;23.294;2023-06-04T11:58:10;95039.59;;;21.81;64.19
11971;BME280;6045;42.682;23.294;2023-06-04T12:00:37;95028.13;;;21.89;64.24
11971;BME280;6045;42.682;23.294;2023-06-04T12:03:04;95030.22;;;21.97;63.65
11971;BME280;6045;42.682;23.294;2023-06-04T12:05:33;95035.75;;;21.87;63.23
11971;BME280;6045;42.682;23.294;2023-06-04T12:08:07;95043.13;;;21.81;63.67
11971;BME280;6045;42.682;23.294;2023-06-04T12:10:38;95042.31;;;21.81;63.25
11971;BME280;6045;42.682;23.294;2023-06-04T12:13:05;95039.47;;;21.67;64.26
11971;BME280;6045;42.682;23.294;2023-06-04T12:15:32;95044.19;;;21.62;65.26
11971;BME280;6045;42.682;23.294;2023-06-04T12:17:59;95043.97;;;21.53;64.90
11971;BME280;6045;42.682;23.294;2023-06-04T12:20:37;95046.00;;;21.43;65.41
11971;BME280;6045;42.682;23.294;2023-06-04T12:23:05;95041.31;;;21.20;65.73
11971;BME280;6045;42.682;23.294;2023-06-04T12:25:33;95047.56;;;21.20;66.09
11971;BME280;6045;42.682;23.294;2023-06-04T12:28:02;95039.69;;;21.19;66.70
11971;BME280;6045;42.682;23.294;2023-06-04T12:30:40;95030.84;;;21.32;68.19
11971;BME280;6045;42.682;23.294;2023-06-04T12:33:07;95042.03;;;21.30;68.24
11971;BME280;6045;42.682;23.294;2023-06-04T12:35:34;95042.56;;;21.32;69.03
11971;BME280;6045;42.682;23.294;2023-06-04T12:38:04;95040.41;;;21.29;68.51
11971;BME280;6045;42.682;23.294;2023-06-04T12:40:34;95039.69;;;21.19;69.40
11971;BME280;6045;42.682;23.294;2023-06-04T12:43:01;95042.13;;;21.20;69.75
11971;BME280;6045;42.682;23.294;2023-06-04T12:45:27;95038.88;;;21.18;69.88
11971;BME280;6045;42.682;23.294;2023-06-04T12:47:54;95033.28;;;21.38;69.97
11971;BME280;6045;42.682;23.294;2023-06-04T12:50:21;95035.69;;;21.40;68.25
11971;BME280;6045;42.682;23.294;2023-06-04T12:52:48;95032.91;;;21.45;66.76
11971;BME280;6045;42.682;23.294;2023-06-04T12:55:16;95042.13;;;21.49;67.17
11971;BME280;6045;42.682;23.294;2023-06-04T13:00:12;95042.50;;;21.37;66.72
11971;BME280;6045;42.682;23.294;2023-06-04T13:02:41;95041.13;;;21.40;67.52
11971;BME280;6045;42.682;23.294;2023-06-04T13:05:08;95035.66;;;21.45;68.83
11971;BME280;6045;42.682;23.294;2023-06-04T13:07:35;95037.03;;;21.42;67.61
11971;BME280;6045;42.682;23.294;2023-06-04T13:10:02;95033.50;;;21.42;66.67
11971;BME280;6045;42.682;23.294;2023-06-04T13:12:30;95036.41;;;21.50;67.46
11971;BME280;6045;42.682;23.294;2023-06-04T13:14:57;95034.81;;;21.44;68.16
11971;BME280;6045;42.682;23.294;2023-06-04T13:17:24;95037.41;;;21.31;70.12
11971;BME280;6045;42.682;23.294;2023-06-04T13:19:50;95036.22;;;21.42;70.38
11971;BME280;6045;42.682;23.294;2023-06-04T13:22:17;95040.56;;;21.14;70.09
11971;BME280;6045;42.682;23.294;2023-06-04T13:24:44;95034.28;;;21.13;69.71
11971;BME280;6045;42.682;23.294;2023-06-04T13:27:11;95029.03;;;21.22;67.55
11971;BME280;6045;42.682;23.294;2023-06-04T13:29:39;95030.28;;;21.35;67.33
11971;BME280;6045;42.682;23.294;2023-06-04T13:32:06;95035.00;;;21.53;65.86
11971;BME280;6045;42.682;23.294;2023-06-04T13:34:33;95036.75;;;21.67;65.61
11971;BME280;6045;42.682;23.294;2023-06-04T13:36:59;95032.13;;;21.68;65.75
11971;BME280;6045;42.682;23.294;2023-06-04T13:39:26;95033.84;;;21.88;65.91
11971;BME280;6045;42.682;23.294;2023-06-04T13:41:53;95025.78;;;22.01;65.11
11971;BME280;6045;42.682;23.294;2023-06-04T13:44:21;95027.47;;;22.21;63.86
11971;BME280;6045;42.682;23.294;2023-06-04T13:46:52;95021.03;;;22.12;63.22
11971;BME280;6045;42.682;23.294;2023-06-04T13:49:19;95018.53;;;22.15;63.47
11971;BME280;6045;42.682;23.294;2023-06-04T13:51:46;95016.59;;;22.39;63.97
11971;BME280;6045;42.682;23.294;2023-06-04T13:54:13;95018.06;;;22.51;61.37
11971;BME280;6045;42.682;23.294;2023-06-04T13:56:40;95016.41;;;22.49;61.40
11971;BME280;6045;42.682;23.294;2023-06-04T13:59:07;95019.16;;;22.68;61.48
11971;BME280;6045;42.682;23.294;2023-06-04T14:01:33;95025.03;;;22.57;61.43
11971;BME280;6045;42.682;23.294;2023-06-04T14:04:02;95031.41;;;22.28;61.67
11971;BME280;6045;42.682;23.294;2023-06-04T14:06:31;95018.66;;;22.05;63.22
11971;BME280;6045;42.682;23.294;2023-06-04T14:08:58;95025.56;;;21.98;63.79
11971;BME280;6045;42.682;23.294;2023-06-04T14:11:25;95032.25;;;21.81;63.12
11971;BME280;6045;42.682;23.294;2023-06-04T14:13:52;95030.75;;;21.70;64.28
11971;BME280;6045;42.682;23.294;2023-06-04T14:16:19;95034.34;;;21.66;64.12
11971;BME280;6045;42.682;23.294;2023-06-04T14:18:45;95035.56;;;21.55;65.78
11971;BME280;6045;42.682;23.294;2023-06-04T14:21:13;95041.91;;;21.45;65.24
11971;BME280;6045;42.682;23.294;2023-06-04T14:23:40;95034.69;;;21.31;65.12
11971;BME280;6045;42.682;23.294;2023-06-04T14:26:07;95035.28;;;21.23;66.00
11971;BME280;6045;42.682;23.294;2023-06-04T14:28:34;95030.72;;;21.18;65.91
11971;BME280;6045;42.682;23.294;2023-06-04T14:31:00;95041.03;;;21.21;64.67
11971;BME280;6045;42.682;23.294;2023-06-04T14:33:28;95037.31;;;21.12;66.44
11971;BME280;6045;42.682;23.294;2023-06-04T14:35:54;95035.06;;;21.19;67.76
11971;BME280;6045;42.682;23.294;2023-06-04T14:38:23;95043.28;;;21.14;65.18